sensor_id;sensor_type;location;lat;lon;timestamp;P1;durP1;ratioP1;P2;durP2;ratioP2
9940;SDS011;5009;50.656;7.188;2022-10-16T00:01:10;5.70;;;4.05;;
9940;SDS011;5009;50.656;7.188;2022-10-16T00:03:41;4.87;;;3.97;;
9940;SDS011;5009;50.656;7.188;2022-10-16T00:06:08;5.67;;;3.57;;
9940;SDS011;5009;50.656;7.188;2022-10-16T00:08:35;5.50;;;3.90;;
9940;SDS011;5009;50.656;7.188;2022-10-16T00:11:09;4.90;;;3.50;;
9940;SDS011;5009;50.656;7.188;2022-10-16T00:13:38;7.50;;;3.70;;
9940;SDS011;5009;50.656;7.188;2022-10-16T00:16:05;7.17;;;3.50;;
9940;SDS011;5009;50.656;7.188;2022-10-16T00:18:31;9.73;;;3.80;;
9940;SDS011;5009;50.656;7.188;2022-10-16T00:21:10;5.40;;;3.43;;
9940;SDS011;5009;50.656;7.188;2022-10-16T00:23:41;6.80;;;3.93;;
9940;SDS011;5009;50.656;7.188;2022-10-16T00:26:08;8.77;;;3.70;;
9940;SDS011;5009;50.656;7.188;2022-10-16T00:28:36;3.83;;;3.43;;
9940;SDS011;5009;50.656;7.188;2022-10-16T00:31:03;4.17;;;3.60;;
9940;SDS011;5009;50.656;7.188;2022-10-16T00:33:36;6.93;;;3.97;;
9940;SDS011;5009;50.656;7.188;2022-10-16T00:36:04;4.77;;;3.13;;
9940;SDS011;5009;50.656;7.188;2022-10-16T00:38:31;5.27;;;3.60;;
9940;SDS011;5009;50.656;7.188;2022-10-16T00:40:57;5.93;;;4.00;;
9940;SDS011;5009;50.656;7.188;2022-10-16T00:46:31;6.43;;;3.23;;
9940;SDS011;5009;50.656;7.188;2022-10-16T00:49:08;6.20;;;4.43;;
9940;SDS011;5009;50.656;7.188;2022-10-16T00:51:39;7.53;;;4.20;;
9940;SDS011;5009;50.656;7.188;2022-10-16T00:54:12;9.27;;;5.23;;
9940;SDS011;5009;50.656;7.188;2022-10-16T00:56:42;4.63;;;3.87;;
9940;SDS011;5009;50.656;7.188;2022-10-16T00:59:18;5.97;;;4.03;;
9940;SDS011;5009;50.656;7.188;2022-10-16T01:01:47;7.40;;;4.43;;
9940;SDS011;5009;50.656;7.188;2022-10-16T01:04:13;7.10;;;3.90;;
9940;SDS011;5009;50.656;7.188;2022-10-16T01:06:57;6.90;;;4.03;;
9940;SDS011;5009;50.656;7.188;2022-10-16T01:12:13;7.43;;;4.50;;
9940;SDS011;5009;50.656;7.188;2022-10-16T01:14:45;5.93;;;4.03;;
9940;SDS011;5009;50.656;7.188;2022-10-16T01:17:20;4.30;;;3.80;;
9940;SDS011;5009;50.656;7.188;2022-10-16T01:22:31;6.33;;;3.67;;
9940;SDS011;5009;50.656;7.188;2022-10-16T01:25:22;4.03;;;3.73;;
9940;SDS011;5009;50.656;7.188;2022-10-16T01:27:56;5.27;;;3.70;;
9940;SDS011;5009;50.656;7.188;2022-10-16T01:30:27;5.60;;;3.47;;
9940;SDS011;5009;50.656;7.188;2022-10-16T01:33:05;6.03;;;4.10;;
9940;SDS011;5009;50.656;7.188;2022-10-16T01:35:41;4.47;;;3.87;;
9940;SDS011;5009;50.656;7.188;2022-10-16T01:40:44;7.13;;;3.83;;
9940;SDS011;5009;50.656;7.188;2022-10-16T01:43:15;4.90;;;4.30;;
9940;SDS011;5009;50.656;7.188;2022-10-16T01:45:47;4.07;;;3.67;;
9940;SDS011;5009;50.656;7.188;2022-10-16T01:48:13;4.77;;;3.60;;
9940;SDS011;5009;50.656;7.188;2022-10-16T01:50:43;6.27;;;3.80;;
9940;SDS011;5009;50.656;7.188;2022-10-16T01:53:14;4.00;;;3.60;;
9940;SDS011;5009;50.656;7.188;2022-10-16T01:55:44;4.83;;;3.70;;
9940;SDS011;5009;50.656;7.188;2022-10-16T01:58:13;6.30;;;3.53;;
9940;SDS011;5009;50.656;7.188;2022-10-16T02:00:40;3.93;;;3.63;;
9940;SDS011;5009;50.656;7.188;2022-10-16T02:03:08;6.27;;;3.73;;
9940;SDS011;5009;50.656;7.188;2022-10-16T02:08:12;6.07;;;3.60;;
9940;SDS011;5009;50.656;7.188;2022-10-16T02:10:38;7.67;;;4.27;;
9940;SDS011;5009;50.656;7.188;2022-10-16T02:15:54;7.67;;;4.10;;
9940;SDS011;5009;50.656;7.188;2022-10-16T02:18:19;6.63;;;4.00;;
9940;SDS011;5009;50.656;7.188;2022-10-16T02:20:53;6.13;;;4.03;;
9940;SDS011;5009;50.656;7.188;2022-10-16T02:23:35;5.63;;;3.73;;
9940;SDS011;5009;50.656;7.188;2022-10-16T02:26:12;8.43;;;3.67;;
9940;SDS011;5009;50.656;7.188;2022-10-16T02:28:43;5.10;;;3.57;;
9940;SDS011;5009;50.656;7.188;2022-10-16T02:31:12;9.50;;;4.40;;
9940;SDS011;5009;50.656;7.188;2022-10-16T02:33:44;8.03;;;3.87;;
9940;SDS011;5009;50.656;7.188;2022-10-16T02:36:11;6.77;;;3.60;;
9940;SDS011;5009;50.656;7.188;2022-10-16T02:38:37;4.17;;;3.63;;
9940;SDS011;5009;50.656;7.188;2022-10-16T02:41:04;6.00;;;3.73;;
9940;SDS011;5009;50.656;7.188;2022-10-16T02:43:31;3.60;;;3.30;;
9940;SDS011;5009;50.656;7.188;2022-10-16T02:45:58;5.00;;;3.73;;
9940;SDS011;5009;50.656;7.188;2022-10-16T02:48:24;10.23;;;4.10;;
9940;SDS011;5009;50.656;7.188;2022-10-16T02:50:49;3.57;;;3.20;;
9940;SDS011;5009;50.656;7.188;2022-10-16T02:53:16;6.37;;;3.10;;
9940;SDS011;5009;50.656;7.188;2022-10-16T02:55:41;4.83;;;3.20;;
9940;SDS011;5009;50.656;7.188;2022-10-16T02:58:07;4.40;;;3.37;;
9940;SDS011;5009;50.656;7.188;2022-10-16T03:00:32;5.13;;;3.07;;
9940;SDS011;5009;50.656;7.188;2022-10-16T03:02:58;5.23;;;2.80;;
9940;SDS011;5009;50.656;7.188;2022-10-16T03:05:23;3.07;;;2.87;;
9940;SDS011;5009;50.656;7.188;2022-10-16T03:07:49;6.73;;;3.00;;
9940;SDS011;5009;50.656;7.188;2022-10-16T03:10:15;5.07;;;2.83;;
9940;SDS011;5009;50.656;7.188;2022-10-16T03:12:40;3.60;;;2.90;;
9940;SDS011;5009;50.656;7.188;2022-10-16T03:15:06;3.63;;;2.93;;
9940;SDS011;5009;50.656;7.188;2022-10-16T03:17:32;4.83;;;2.83;;
9940;SDS011;5009;50.656;7.188;2022-10-16T03:19:58;3.10;;;2.80;;
9940;SDS011;5009;50.656;7.188;2022-10-16T03:22:23;2.77;;;2.60;;
9940;SDS011;5009;50.656;7.188;2022-10-16T03:24:49;3.60;;;2.87;;
9940;SDS011;5009;50.656;7.188;2022-10-16T03:27:14;2.73;;;2.33;;
9940;SDS011;5009;50.656;7.188;2022-10-16T03:29:40;3.10;;;2.43;;
9940;SDS011;5009;50.656;7.188;2022-10-16T03:32:05;4.43;;;2.33;;
9940;SDS011;5009;50.656;7.188;2022-10-16T03:34:31;2.73;;;2.53;;
9940;SDS011;5009;50.656;7.188;2022-10-16T03:36:57;4.27;;;2.50;;
9940;SDS011;5009;50.656;7.188;2022-10-16T03:39:22;4.20;;;2.40;;
9940;SDS011;5009;50.656;7.188;2022-10-16T03:41:48;2.53;;;2.30;;
9940;SDS011;5009;50.656;7.188;2022-10-16T03:44:13;2.60;;;2.37;;
9940;SDS011;5009;50.656;7.188;2022-10-16T03:46:39;2.10;;;2.00;;
9940;SDS011;5009;50.656;7.188;2022-10-16T03:49:04;3.50;;;2.20;;
9940;SDS011;5009;50.656;7.188;2022-10-16T03:51:30;3.90;;;2.50;;
9940;SDS011;5009;50.656;7.188;2022-10-16T03:53:56;3.73;;;2.40;;
9940;SDS011;5009;50.656;7.188;2022-10-16T03:56:21;3.40;;;2.50;;
9940;SDS011;5009;50.656;7.188;2022-10-16T03:58:47;3.90;;;2.37;;
9940;SDS011;5009;50.656;7.188;2022-10-16T04:01:12;3.97;;;2.50;;
9940;SDS011;5009;50.656;7.188;2022-10-16T04:03:38;4.50;;;2.43;;
9940;SDS011;5009;50.656;7.188;2022-10-16T04:06:03;4.50;;;2.37;;
9940;SDS011;5009;50.656;7.188;2022-10-16T04:08:29;4.40;;;1.93;;
9940;SDS011;5009;50.656;7.188;2022-10-16T04:10:54;3.10;;;2.40;;
9940;SDS011;5009;50.656;7.188;2022-10-16T04:13:20;5.07;;;2.17;;
9940;SDS011;5009;50.656;7.188;2022-10-16T04:15:45;2.40;;;2.13;;
9940;SDS011;5009;50.656;7.188;2022-10-16T04:18:11;3.57;;;2.03;;
9940;SDS011;5009;50.656;7.188;2022-10-16T04:20:37;4.13;;;2.30;;
9940;SDS011;5009;50.656;7.188;2022-10-16T04:23:03;1.70;;;1.60;;
9940;SDS011;5009;50.656;7.188;2022-10-16T04:25:28;3.47;;;1.77;;
9940;SDS011;5009;50.656;7.188;2022-10-16T04:27:55;2.17;;;1.70;;
9940;SDS011;5009;50.656;7.188;2022-10-16T04:30:21;2.73;;;1.90;;
9940;SDS011;5009;50.656;7.188;2022-10-16T04:32:51;3.27;;;2.00;;
9940;SDS011;5009;50.656;7.188;2022-10-16T04:35:17;2.57;;;2.37;;
9940;SDS011;5009;50.656;7.188;2022-10-16T04:37:44;5.00;;;2.20;;
9940;SDS011;5009;50.656;7.188;2022-10-16T04:40:09;3.47;;;2.13;;
9940;SDS011;5009;50.656;7.188;2022-10-16T04:42:35;2.20;;;2.10;;
9940;SDS011;5009;50.656;7.188;2022-10-16T04:45:00;3.83;;;2.17;;
9940;SDS011;5009;50.656;7.188;2022-10-16T04:47:26;2.43;;;1.90;;
9940;SDS011;5009;50.656;7.188;2022-10-16T04:49:52;4.00;;;2.77;;
9940;SDS011;5009;50.656;7.188;2022-10-16T04:52:17;2.50;;;2.30;;
9940;SDS011;5009;50.656;7.188;2022-10-16T04:54:43;5.07;;;2.20;;
9940;SDS011;5009;50.656;7.188;2022-10-16T04:57:10;3.97;;;2.17;;
9940;SDS011;5009;50.656;7.188;2022-10-16T04:59:36;2.70;;;2.50;;
9940;SDS011;5009;50.656;7.188;2022-10-16T05:02:02;4.30;;;2.77;;
9940;SDS011;5009;50.656;7.188;2022-10-16T05:04:27;2.80;;;2.60;;
9940;SDS011;5009;50.656;7.188;2022-10-16T05:06:53;2.60;;;2.40;;
9940;SDS011;5009;50.656;7.188;2022-10-16T05:09:18;4.47;;;2.30;;
9940;SDS011;5009;50.656;7.188;2022-10-16T05:11:44;3.03;;;2.20;;
9940;SDS011;5009;50.656;7.188;2022-10-16T05:14:09;2.40;;;2.20;;
9940;SDS011;5009;50.656;7.188;2022-10-16T05:16:35;2.20;;;2.10;;
9940;SDS011;5009;50.656;7.188;2022-10-16T05:19:00;2.57;;;2.37;;
9940;SDS011;5009;50.656;7.188;2022-10-16T05:21:26;3.93;;;2.20;;
9940;SDS011;5009;50.656;7.188;2022-10-16T05:23:52;2.63;;;2.20;;
9940;SDS011;5009;50.656;7.188;2022-10-16T05:26:19;2.27;;;2.07;;
9940;SDS011;5009;50.656;7.188;2022-10-16T05:28:45;2.13;;;2.03;;
9940;SDS011;5009;50.656;7.188;2022-10-16T05:31:10;3.20;;;2.03;;
9940;SDS011;5009;50.656;7.188;2022-10-16T05:33:36;2.43;;;2.23;;
9940;SDS011;5009;50.656;7.188;2022-10-16T05:36:05;6.30;;;2.50;;
9940;SDS011;5009;50.656;7.188;2022-10-16T05:38:32;2.27;;;2.17;;
9940;SDS011;5009;50.656;7.188;2022-10-16T05:41:01;2.43;;;2.23;;
9940;SDS011;5009;50.656;7.188;2022-10-16T05:43:28;2.30;;;1.87;;
9940;SDS011;5009;50.656;7.188;2022-10-16T05:48:21;2.10;;;1.87;;
9940;SDS011;5009;50.656;7.188;2022-10-16T05:50:48;2.70;;;1.90;;
9940;SDS011;5009;50.656;7.188;2022-10-16T05:53:13;4.83;;;2.13;;
9940;SDS011;5009;50.656;7.188;2022-10-16T05:55:39;2.40;;;2.20;;
9940;SDS011;5009;50.656;7.188;2022-10-16T05:58:04;2.40;;;2.10;;
9940;SDS011;5009;50.656;7.188;2022-10-16T06:00:30;2.10;;;2.00;;
9940;SDS011;5009;50.656;7.188;2022-10-16T06:02:55;6.93;;;2.30;;
9940;SDS011;5009;50.656;7.188;2022-10-16T06:05:21;5.37;;;1.90;;
9940;SDS011;5009;50.656;7.188;2022-10-16T06:07:46;3.17;;;2.23;;
9940;SDS011;5009;50.656;7.188;2022-10-16T06:10:12;3.47;;;2.00;;
9940;SDS011;5009;50.656;7.188;2022-10-16T06:12:37;4.33;;;2.23;;
9940;SDS011;5009;50.656;7.188;2022-10-16T06:15:03;2.80;;;2.30;;
9940;SDS011;5009;50.656;7.188;2022-10-16T06:17:29;4.90;;;2.00;;
9940;SDS011;5009;50.656;7.188;2022-10-16T06:19:54;2.00;;;1.90;;
9940;SDS011;5009;50.656;7.188;2022-10-16T06:22:20;2.77;;;1.70;;
9940;SDS011;5009;50.656;7.188;2022-10-16T06:24:46;2.37;;;1.87;;
9940;SDS011;5009;50.656;7.188;2022-10-16T06:27:12;3.27;;;1.90;;
9940;SDS011;5009;50.656;7.188;2022-10-16T06:29:38;3.23;;;2.17;;
9940;SDS011;5009;50.656;7.188;2022-10-16T06:32:03;2.63;;;2.43;;
9940;SDS011;5009;50.656;7.188;2022-10-16T06:34:29;2.03;;;1.93;;
9940;SDS011;5009;50.656;7.188;2022-10-16T06:36:54;1.90;;;1.80;;
9940;SDS011;5009;50.656;7.188;2022-10-16T06:39:20;4.28;;;2.03;;
9940;SDS011;5009;50.656;7.188;2022-10-16T06:41:46;2.40;;;1.93;;
9940;SDS011;5009;50.656;7.188;2022-10-16T06:44:11;2.33;;;2.00;;
9940;SDS011;5009;50.656;7.188;2022-10-16T06:46:37;2.85;;;1.63;;
9940;SDS011;5009;50.656;7.188;2022-10-16T06:49:02;7.05;;;2.50;;
9940;SDS011;5009;50.656;7.188;2022-10-16T06:51:28;2.08;;;1.50;;
9940;SDS011;5009;50.656;7.188;2022-10-16T06:53:55;2.33;;;1.50;;
9940;SDS011;5009;50.656;7.188;2022-10-16T06:56:25;2.42;;;1.63;;
9940;SDS011;5009;50.656;7.188;2022-10-16T06:58:52;3.63;;;1.60;;
9940;SDS011;5009;50.656;7.188;2022-10-16T07:01:20;2.63;;;1.65;;
9940;SDS011;5009;50.656;7.188;2022-10-16T07:03:48;1.52;;;1.42;;
9940;SDS011;5009;50.656;7.188;2022-10-16T07:06:15;1.95;;;1.48;;
9940;SDS011;5009;50.656;7.188;2022-10-16T07:08:42;2.15;;;1.92;;
9940;SDS011;5009;50.656;7.188;2022-10-16T07:11:10;2.05;;;1.95;;
9940;SDS011;5009;50.656;7.188;2022-10-16T07:13:41;3.65;;;2.08;;
9940;SDS011;5009;50.656;7.188;2022-10-16T07:16:10;2.90;;;2.23;;
9940;SDS011;5009;50.656;7.188;2022-10-16T07:18:41;2.83;;;2.05;;
9940;SDS011;5009;50.656;7.188;2022-10-16T07:21:10;3.35;;;2.30;;
9940;SDS011;5009;50.656;7.188;2022-10-16T07:23:49;2.78;;;1.75;;
9940;SDS011;5009;50.656;7.188;2022-10-16T07:26:15;3.20;;;1.92;;
9940;SDS011;5009;50.656;7.188;2022-10-16T07:28:41;3.92;;;1.77;;
9940;SDS011;5009;50.656;7.188;2022-10-16T07:31:09;1.95;;;1.85;;
9940;SDS011;5009;50.656;7.188;2022-10-16T07:33:37;2.00;;;1.80;;
9940;SDS011;5009;50.656;7.188;2022-10-16T07:36:03;2.70;;;1.73;;
9940;SDS011;5009;50.656;7.188;2022-10-16T07:38:29;1.80;;;1.70;;
9940;SDS011;5009;50.656;7.188;2022-10-16T07:40:56;3.13;;;1.95;;
9940;SDS011;5009;50.656;7.188;2022-10-16T07:43:23;4.28;;;1.83;;
9940;SDS011;5009;50.656;7.188;2022-10-16T07:45:48;2.08;;;1.98;;
9940;SDS011;5009;50.656;7.188;2022-10-16T07:48:15;2.00;;;1.80;;
9940;SDS011;5009;50.656;7.188;2022-10-16T07:50:41;2.00;;;1.90;;
9940;SDS011;5009;50.656;7.188;2022-10-16T07:53:08;2.22;;;2.13;;
9940;SDS011;5009;50.656;7.188;2022-10-16T07:55:34;2.13;;;1.98;;
9940;SDS011;5009;50.656;7.188;2022-10-16T07:58:00;2.05;;;1.85;;
9940;SDS011;5009;50.656;7.188;2022-10-16T08:00:25;2.70;;;1.98;;
9940;SDS011;5009;50.656;7.188;2022-10-16T08:02:51;2.28;;;1.90;;
9940;SDS011;5009;50.656;7.188;2022-10-16T08:05:16;1.90;;;1.80;;
9940;SDS011;5009;50.656;7.188;2022-10-16T08:07:42;1.85;;;1.75;;
9940;SDS011;5009;50.656;7.188;2022-10-16T08:10:11;2.10;;;1.35;;
9940;SDS011;5009;50.656;7.188;2022-10-16T08:12:41;2.72;;;1.60;;
9940;SDS011;5009;50.656;7.188;2022-10-16T08:15:07;1.80;;;1.60;;
9940;SDS011;5009;50.656;7.188;2022-10-16T08:17:33;1.83;;;1.50;;
9940;SDS011;5009;50.656;7.188;2022-10-16T08:19:59;3.05;;;1.75;;
9940;SDS011;5009;50.656;7.188;2022-10-16T08:22:24;2.28;;;1.60;;
9940;SDS011;5009;50.656;7.188;2022-10-16T08:24:50;5.22;;;2.10;;
9940;SDS011;5009;50.656;7.188;2022-10-16T08:27:15;1.58;;;1.48;;
9940;SDS011;5009;50.656;7.188;2022-10-16T08:29:41;2.05;;;1.58;;
9940;SDS011;5009;50.656;7.188;2022-10-16T08:32:07;3.00;;;2.13;;
9940;SDS011;5009;50.656;7.188;2022-10-16T08:34:32;3.17;;;1.90;;
9940;SDS011;5009;50.656;7.188;2022-10-16T08:36:58;2.63;;;1.77;;
9940;SDS011;5009;50.656;7.188;2022-10-16T08:39:23;2.55;;;1.45;;
9940;SDS011;5009;50.656;7.188;2022-10-16T08:41:54;1.65;;;1.55;;
9940;SDS011;5009;50.656;7.188;2022-10-16T08:47:43;2.33;;;1.30;;
9940;SDS011;5009;50.656;7.188;2022-10-16T08:50:17;1.48;;;1.38;;
9940;SDS011;5009;50.656;7.188;2022-10-16T08:52:52;1.40;;;1.35;;
9940;SDS011;5009;50.656;7.188;2022-10-16T08:55:38;3.00;;;1.52;;
9940;SDS011;5009;50.656;7.188;2022-10-16T08:58:15;2.20;;;1.10;;
9940;SDS011;5009;50.656;7.188;2022-10-16T09:00:44;1.38;;;1.13;;
9940;SDS011;5009;50.656;7.188;2022-10-16T09:03:20;1.67;;;0.90;;
9940;SDS011;5009;50.656;7.188;2022-10-16T09:08:51;1.55;;;1.23;;
9940;SDS011;5009;50.656;7.188;2022-10-16T09:17:15;2.08;;;1.13;;
9940;SDS011;5009;50.656;7.188;2022-10-16T09:19:54;1.63;;;0.75;;
9940;SDS011;5009;50.656;7.188;2022-10-16T09:22:27;1.05;;;1.05;;
9940;SDS011;5009;50.656;7.188;2022-10-16T09:24:54;3.90;;;1.10;;
9940;SDS011;5009;50.656;7.188;2022-10-16T09:27:24;0.73;;;0.73;;
9940;SDS011;5009;50.656;7.188;2022-10-16T09:29:50;1.02;;;1.00;;
9940;SDS011;5009;50.656;7.188;2022-10-16T09:32:17;0.88;;;0.80;;
9940;SDS011;5009;50.656;7.188;2022-10-16T09:34:47;1.40;;;1.30;;
9940;SDS011;5009;50.656;7.188;2022-10-16T09:37:17;2.33;;;1.73;;
9940;SDS011;5009;50.656;7.188;2022-10-16T09:39:46;1.08;;;1.08;;
9940;SDS011;5009;50.656;7.188;2022-10-16T09:42:16;1.17;;;1.08;;
9940;SDS011;5009;50.656;7.188;2022-10-16T09:44:47;1.00;;;1.00;;
9940;SDS011;5009;50.656;7.188;2022-10-16T09:47:15;1.45;;;0.95;;
9940;SDS011;5009;50.656;7.188;2022-10-16T09:52:23;1.15;;;1.00;;
9940;SDS011;5009;50.656;7.188;2022-10-16T09:54:59;1.10;;;0.90;;
9940;SDS011;5009;50.656;7.188;2022-10-16T09:57:26;0.82;;;0.80;;
9940;SDS011;5009;50.656;7.188;2022-10-16T09:59:53;1.05;;;1.05;;
9940;SDS011;5009;50.656;7.188;2022-10-16T10:02:28;1.55;;;0.93;;
9940;SDS011;5009;50.656;7.188;2022-10-16T10:04:56;2.53;;;1.83;;
9940;SDS011;5009;50.656;7.188;2022-10-16T10:07:32;2.60;;;2.28;;
9940;SDS011;5009;50.656;7.188;2022-10-16T10:10:03;2.00;;;1.23;;
9940;SDS011;5009;50.656;7.188;2022-10-16T10:12:30;1.95;;;1.60;;
9940;SDS011;5009;50.656;7.188;2022-10-16T10:15:04;1.90;;;1.40;;
9940;SDS011;5009;50.656;7.188;2022-10-16T10:17:45;2.25;;;2.05;;
9940;SDS011;5009;50.656;7.188;2022-10-16T10:20:22;1.70;;;1.20;;
9940;SDS011;5009;50.656;7.188;2022-10-16T10:22:57;1.63;;;1.42;;
9940;SDS011;5009;50.656;7.188;2022-10-16T10:46:39;1.25;;;0.90;;
9940;SDS011;5009;50.656;7.188;2022-10-16T11:05:55;1.60;;;0.82;;
9940;SDS011;5009;50.656;7.188;2022-10-16T11:08:41;1.40;;;0.80;;
9940;SDS011;5009;50.656;7.188;2022-10-16T11:11:17;2.75;;;1.10;;
9940;SDS011;5009;50.656;7.188;2022-10-16T11:14:10;0.80;;;0.80;;
9940;SDS011;5009;50.656;7.188;2022-10-16T11:16:40;0.88;;;0.65;;
9940;SDS011;5009;50.656;7.188;2022-10-16T11:21:43;2.13;;;0.95;;
9940;SDS011;5009;50.656;7.188;2022-10-16T11:24:37;0.40;;;0.40;;
9940;SDS011;5009;50.656;7.188;2022-10-16T11:27:08;0.60;;;0.60;;
9940;SDS011;5009;50.656;7.188;2022-10-16T11:29:39;0.70;;;0.70;;
9940;SDS011;5009;50.656;7.188;2022-10-16T11:32:18;1.33;;;0.73;;
9940;SDS011;5009;50.656;7.188;2022-10-16T11:35:03;2.53;;;0.43;;
9940;SDS011;5009;50.656;7.188;2022-10-16T11:37:58;0.95;;;0.80;;
9940;SDS011;5009;50.656;7.188;2022-10-16T11:40:28;0.90;;;0.90;;
9940;SDS011;5009;50.656;7.188;2022-10-16T11:45:54;1.45;;;0.73;;
9940;SDS011;5009;50.656;7.188;2022-10-16T11:50:53;1.20;;;1.10;;
9940;SDS011;5009;50.656;7.188;2022-10-16T11:53:37;0.93;;;0.93;;
9940;SDS011;5009;50.656;7.188;2022-10-16T11:56:12;1.02;;;0.73;;
9940;SDS011;5009;50.656;7.188;2022-10-16T12:07:05;0.80;;;0.80;;
9940;SDS011;5009;50.656;7.188;2022-10-16T12:09:37;1.25;;;1.17;;
9940;SDS011;5009;50.656;7.188;2022-10-16T12:12:04;0.60;;;0.60;;
9940;SDS011;5009;50.656;7.188;2022-10-16T12:14:48;1.15;;;1.15;;
9940;SDS011;5009;50.656;7.188;2022-10-16T12:17:34;0.73;;;0.73;;
9940;SDS011;5009;50.656;7.188;2022-10-16T12:22:40;1.23;;;0.80;;
9940;SDS011;5009;50.656;7.188;2022-10-16T12:25:21;0.75;;;0.70;;
9940;SDS011;5009;50.656;7.188;2022-10-16T12:30:40;1.77;;;1.00;;
9940;SDS011;5009;50.656;7.188;2022-10-16T12:33:17;0.77;;;0.77;;
9940;SDS011;5009;50.656;7.188;2022-10-16T12:35:50;1.38;;;0.98;;
9940;SDS011;5009;50.656;7.188;2022-10-16T12:38:20;3.22;;;0.93;;
9940;SDS011;5009;50.656;7.188;2022-10-16T12:41:01;0.77;;;0.77;;
9940;SDS011;5009;50.656;7.188;2022-10-16T12:48:35;0.80;;;0.80;;
9940;SDS011;5009;50.656;7.188;2022-10-16T12:51:12;0.60;;;0.60;;
9940;SDS011;5009;50.656;7.188;2022-10-16T12:53:57;0.90;;;0.90;;
9940;SDS011;5009;50.656;7.188;2022-10-16T12:56:38;1.27;;;0.80;;
9940;SDS011;5009;50.656;7.188;2022-10-16T12:59:37;0.63;;;0.63;;
9940;SDS011;5009;50.656;7.188;2022-10-16T13:05:12;0.95;;;0.63;;
9940;SDS011;5009;50.656;7.188;2022-10-16T13:18:56;1.40;;;1.30;;
9940;SDS011;5009;50.656;7.188;2022-10-16T13:21:41;1.40;;;1.30;;
9940;SDS011;5009;50.656;7.188;2022-10-16T13:24:39;2.28;;;1.23;;
9940;SDS011;5009;50.656;7.188;2022-10-16T13:27:29;1.58;;;1.23;;
9940;SDS011;5009;50.656;7.188;2022-10-16T13:30:20;2.30;;;0.90;;
9940;SDS011;5009;50.656;7.188;2022-10-16T13:32:50;2.78;;;1.00;;
9940;SDS011;5009;50.656;7.188;2022-10-16T13:35:32;1.85;;;1.02;;
9940;SDS011;5009;50.656;7.188;2022-10-16T13:40:47;2.65;;;1.05;;
9940;SDS011;5009;50.656;7.188;2022-10-16T13:43:20;1.10;;;1.00;;
9940;SDS011;5009;50.656;7.188;2022-10-16T13:46:17;1.15;;;1.05;;
9940;SDS011;5009;50.656;7.188;2022-10-16T13:48:44;1.40;;;1.30;;
9940;SDS011;5009;50.656;7.188;2022-10-16T13:51:21;0.95;;;0.95;;
9940;SDS011;5009;50.656;7.188;2022-10-16T13:53:51;4.32;;;0.82;;
9940;SDS011;5009;50.656;7.188;2022-10-16T13:56:21;1.77;;;0.85;;
9940;SDS011;5009;50.656;7.188;2022-10-16T14:01:50;1.73;;;1.10;;
9940;SDS011;5009;50.656;7.188;2022-10-16T14:04:19;1.10;;;1.00;;
9940;SDS011;5009;50.656;7.188;2022-10-16T14:06:45;1.00;;;0.98;;
9940;SDS011;5009;50.656;7.188;2022-10-16T14:09:16;1.42;;;1.02;;
9940;SDS011;5009;50.656;7.188;2022-10-16T14:11:47;1.52;;;1.08;;
9940;SDS011;5009;50.656;7.188;2022-10-16T14:14:16;1.08;;;1.08;;
9940;SDS011;5009;50.656;7.188;2022-10-16T14:16:43;1.33;;;0.90;;
9940;SDS011;5009;50.656;7.188;2022-10-16T14:19:22;1.60;;;1.50;;
9940;SDS011;5009;50.656;7.188;2022-10-16T14:21:50;1.55;;;1.20;;
9940;SDS011;5009;50.656;7.188;2022-10-16T14:24:27;1.38;;;1.20;;
9940;SDS011;5009;50.656;7.188;2022-10-16T14:26:57;1.63;;;0.80;;
9940;SDS011;5009;50.656;7.188;2022-10-16T14:29:24;1.33;;;1.13;;
9940;SDS011;5009;50.656;7.188;2022-10-16T14:32:01;1.00;;;1.00;;
9940;SDS011;5009;50.656;7.188;2022-10-16T14:36:59;0.90;;;0.85;;
9940;SDS011;5009;50.656;7.188;2022-10-16T14:39:31;1.20;;;1.20;;
9940;SDS011;5009;50.656;7.188;2022-10-16T14:41:57;1.33;;;1.23;;
9940;SDS011;5009;50.656;7.188;2022-10-16T14:44:27;1.15;;;0.90;;
9940;SDS011;5009;50.656;7.188;2022-10-16T14:46:55;1.60;;;1.25;;
9940;SDS011;5009;50.656;7.188;2022-10-16T14:49:21;1.67;;;0.93;;
9940;SDS011;5009;50.656;7.188;2022-10-16T14:51:48;1.30;;;1.30;;
9940;SDS011;5009;50.656;7.188;2022-10-16T14:54:15;2.08;;;1.00;;
9940;SDS011;5009;50.656;7.188;2022-10-16T14:56:47;2.28;;;1.40;;
9940;SDS011;5009;50.656;7.188;2022-10-16T14:59:25;3.03;;;1.00;;
9940;SDS011;5009;50.656;7.188;2022-10-16T15:01:51;1.17;;;1.13;;
9940;SDS011;5009;50.656;7.188;2022-10-16T15:04:17;1.67;;;0.80;;
9940;SDS011;5009;50.656;7.188;2022-10-16T15:06:43;2.33;;;1.40;;
9940;SDS011;5009;50.656;7.188;2022-10-16T15:09:09;1.70;;;1.25;;
9940;SDS011;5009;50.656;7.188;2022-10-16T15:11:35;1.98;;;1.00;;
9940;SDS011;5009;50.656;7.188;2022-10-16T15:14:01;1.48;;;1.00;;
9940;SDS011;5009;50.656;7.188;2022-10-16T15:16:28;2.55;;;0.98;;
9940;SDS011;5009;50.656;7.188;2022-10-16T15:18:54;1.98;;;0.98;;
9940;SDS011;5009;50.656;7.188;2022-10-16T15:21:29;1.75;;;0.88;;
9940;SDS011;5009;50.656;7.188;2022-10-16T15:23:57;1.33;;;1.23;;
9940;SDS011;5009;50.656;7.188;2022-10-16T15:26:27;1.75;;;1.10;;
9940;SDS011;5009;50.656;7.188;2022-10-16T15:28:54;2.05;;;1.08;;
9940;SDS011;5009;50.656;7.188;2022-10-16T15:31:20;3.15;;;1.02;;
9940;SDS011;5009;50.656;7.188;2022-10-16T15:33:49;0.90;;;0.85;;
9940;SDS011;5009;50.656;7.188;2022-10-16T15:36:24;2.13;;;1.30;;
9940;SDS011;5009;50.656;7.188;2022-10-16T15:38:50;4.13;;;1.23;;
9940;SDS011;5009;50.656;7.188;2022-10-16T15:41:16;1.38;;;1.00;;
9940;SDS011;5009;50.656;7.188;2022-10-16T15:43:41;2.47;;;1.15;;
9940;SDS011;5009;50.656;7.188;2022-10-16T15:46:08;1.20;;;1.10;;
9940;SDS011;5009;50.656;7.188;2022-10-16T15:48:36;1.38;;;0.95;;
9940;SDS011;5009;50.656;7.188;2022-10-16T15:51:05;1.30;;;1.20;;
9940;SDS011;5009;50.656;7.188;2022-10-16T15:53:32;1.90;;;1.27;;
9940;SDS011;5009;50.656;7.188;2022-10-16T15:56:01;1.38;;;1.27;;
9940;SDS011;5009;50.656;7.188;2022-10-16T15:58:27;2.60;;;1.15;;
9940;SDS011;5009;50.656;7.188;2022-10-16T16:00:56;1.95;;;1.23;;
9940;SDS011;5009;50.656;7.188;2022-10-16T16:03:22;1.02;;;0.77;;
9940;SDS011;5009;50.656;7.188;2022-10-16T16:05:48;1.10;;;0.93;;
9940;SDS011;5009;50.656;7.188;2022-10-16T16:08:14;2.22;;;1.27;;
9940;SDS011;5009;50.656;7.188;2022-10-16T16:10:39;1.52;;;1.42;;
9940;SDS011;5009;50.656;7.188;2022-10-16T16:13:05;1.10;;;1.10;;
9940;SDS011;5009;50.656;7.188;2022-10-16T16:15:31;1.20;;;1.05;;
9940;SDS011;5009;50.656;7.188;2022-10-16T16:17:56;1.40;;;1.30;;
9940;SDS011;5009;50.656;7.188;2022-10-16T16:20:22;1.13;;;1.13;;
9940;SDS011;5009;50.656;7.188;2022-10-16T16:22:48;1.40;;;1.30;;
9940;SDS011;5009;50.656;7.188;2022-10-16T16:25:13;3.17;;;1.30;;
9940;SDS011;5009;50.656;7.188;2022-10-16T16:27:39;1.80;;;1.35;;
9940;SDS011;5009;50.656;7.188;2022-10-16T16:30:09;1.40;;;1.30;;
9940;SDS011;5009;50.656;7.188;2022-10-16T16:32:35;1.33;;;1.30;;
9940;SDS011;5009;50.656;7.188;2022-10-16T16:35:02;1.38;;;1.27;;
9940;SDS011;5009;50.656;7.188;2022-10-16T16:37:28;2.72;;;1.30;;
9940;SDS011;5009;50.656;7.188;2022-10-16T16:39:54;1.15;;;1.15;;
9940;SDS011;5009;50.656;7.188;2022-10-16T16:42:23;1.48;;;1.35;;
9940;SDS011;5009;50.656;7.188;2022-10-16T16:44:49;1.00;;;1.00;;
9940;SDS011;5009;50.656;7.188;2022-10-16T16:47:15;1.65;;;1.55;;
9940;SDS011;5009;50.656;7.188;2022-10-16T16:49:41;1.13;;;1.13;;
9940;SDS011;5009;50.656;7.188;2022-10-16T16:52:06;1.63;;;1.30;;
9940;SDS011;5009;50.656;7.188;2022-10-16T16:54:32;1.65;;;1.38;;
9940;SDS011;5009;50.656;7.188;2022-10-16T16:56:57;1.67;;;1.00;;
9940;SDS011;5009;50.656;7.188;2022-10-16T16:59:23;1.30;;;1.30;;
9940;SDS011;5009;50.656;7.188;2022-10-16T17:01:49;1.48;;;1.38;;
9940;SDS011;5009;50.656;7.188;2022-10-16T17:04:16;2.42;;;1.17;;
9940;SDS011;5009;50.656;7.188;2022-10-16T17:06:41;2.28;;;1.77;;
9940;SDS011;5009;50.656;7.188;2022-10-16T17:09:07;1.60;;;1.48;;
9940;SDS011;5009;50.656;7.188;2022-10-16T17:11:34;1.35;;;1.25;;
9940;SDS011;5009;50.656;7.188;2022-10-16T17:14:00;1.50;;;1.40;;
9940;SDS011;5009;50.656;7.188;2022-10-16T17:16:33;1.45;;;1.20;;
9940;SDS011;5009;50.656;7.188;2022-10-16T17:19:00;2.88;;;1.55;;
9940;SDS011;5009;50.656;7.188;2022-10-16T17:21:36;3.00;;;1.65;;
9940;SDS011;5009;50.656;7.188;2022-10-16T17:24:02;1.55;;;1.30;;
9940;SDS011;5009;50.656;7.188;2022-10-16T17:26:28;3.05;;;1.40;;
9940;SDS011;5009;50.656;7.188;2022-10-16T17:28:55;2.70;;;1.63;;